Terminal Aerodrome Forecast
Issued by NWS Charleston, WV

Home | Current Version | Previous Version | Text Only | Print | Product List | Glossary On
Versions: 1 2 3 4 5 6 7 8 9 10 11 12 13 14 15 16 17 18 19 20 21 22 23 24
000
FTUS41 KRLX 250200 AAB
TAFBKW
TAF AMD
KBKW 250217Z 2502/2524 00000KT 5SM BR SKC
     FM250400 00000KT 2SM BR SCT001
     FM250500 00000KT 1/4SM FG VV001
     FM251400 VRB03KT 2SM BR SCT001
     FM251500 06004KT P6SM SCT025
     FM251900 11005KT P6SM SCT035
     FM252100 17005KT P6SM SCT040=

USA.gov is the U.S. government's official web portal to all federal, state and local government web resources and services.